Time;durP1;ratioP1;P1;durP2;ratioP2;P2;SDS_P1;SDS_P2;PMS_P1;PMS_P2;Temp;Humidity;BMP_temperature;BMP_pressure;BME280_temperature;BME280_humidity;BME280_pressure;Samples;Min_cycle;Max_cycle;Signal;HPM_P1;HPM_P2
2023/10/03 00:04:29;;;;;;;34.10;16.75;;;;;;;18.90;95.62;101168.56;10473015;28;20044;-65
2023/10/03 00:09:51;;;;;;;36.88;16.23;;;;;;;18.93;95.28;101152.66;10466619;28;20151;-65
2023/10/03 00:15:12;;;;;;;36.28;15.55;;;;;;;18.98;95.33;101147.97;10470145;28;20044;-64
2023/10/03 00:20:34;;;;;;;34.85;16.45;;;;;;;18.93;95.32;101134.31;10480096;28;20043;-65
2023/10/03 00:25:59;;;;;;;32.65;15.60;;;;;;;18.92;95.33;101119.47;10477367;28;20514;-65
2023/10/03 00:31:20;;;;;;;32.63;14.57;;;;;;;18.91;95.73;101109.94;10499093;28;20055;-65
2023/10/03 00:36:42;;;;;;;33.65;14.52;;;;;;;18.90;95.33;101100.38;10471219;28;20053;-65
2023/10/03 00:42:05;;;;;;;30.05;14.02;;;;;;;18.92;95.25;101102.91;10472094;28;20045;-65
2023/10/03 00:47:27;;;;;;;36.28;14.68;;;;;;;18.91;94.99;101090.72;10469446;28;20545;-65
2023/10/03 00:52:56;;;;;;;30.13;13.77;;;;;;;18.91;95.08;101085.50;10476927;28;20065;-65
2023/10/03 00:58:17;;;;;;;26.13;13.20;;;;;;;18.87;95.02;101087.44;10487464;28;20048;-65
2023/10/03 01:03:39;;;;;;;32.30;13.15;;;;;;;18.82;95.20;101057.19;10478642;28;20063;-65
2023/10/03 01:09:01;;;;;;;27.27;13.10;;;;;;;18.84;94.90;101048.28;10468466;28;20402;-65
2023/10/03 01:14:25;;;;;;;25.05;13.00;;;;;;;18.81;94.72;101032.75;10478770;28;20553;-65
2023/10/03 01:19:48;;;;;;;31.35;12.85;;;;;;;18.81;94.72;101032.75;10473322;28;20143;-65
2023/10/03 01:25:12;;;;;;;24.05;12.05;;;;;;;18.81;94.71;101037.97;10467871;28;20044;-65
2023/10/03 01:30:36;;;;;;;22.52;11.02;;;;;;;18.79;94.91;101012.78;10489850;28;20504;-65
2023/10/03 01:35:58;;;;;;;23.05;11.80;;;;;;;18.79;94.77;100976.91;10477504;28;20488;-64
2023/10/03 01:41:20;;;;;;;24.63;11.18;;;;;;;18.81;94.45;100974.19;10464547;28;20110;-64
2023/10/03 01:46:42;;;;;;;23.60;10.85;;;;;;;18.83;94.22;100952.19;10472926;28;20143;-65
2023/10/03 01:52:04;;;;;;;23.10;10.60;;;;;;;18.84;93.84;100956.47;10471141;28;20063;-65
2023/10/03 01:57:26;;;;;;;22.63;10.57;;;;;;;18.86;93.58;100941.50;10475014;28;20733;-65
2023/10/03 02:02:48;;;;;;;21.05;10.38;;;;;;;18.81;93.47;100927.84;10469954;28;20059;-65
2023/10/03 02:08:15;;;;;;;21.92;10.45;;;;;;;18.80;93.64;100893.84;10458449;28;20064;-65
2023/10/03 02:13:39;;;;;;;22.77;10.40;;;;;;;18.79;93.09;100848.41;10489946;28;20044;-65
2023/10/03 02:19:00;;;;;;;19.52;10.40;;;;;;;18.77;93.29;100836.38;10487466;28;20505;-65
2023/10/03 02:24:22;;;;;;;28.70;10.70;;;;;;;18.73;92.96;100832.25;10468969;28;20436;-65
2023/10/03 02:29:44;;;;;;;17.85;9.77;;;;;;;18.73;92.64;100834.88;10471110;28;20050;-65
2023/10/03 02:35:07;;;;;;;18.60;9.98;;;;;;;18.73;92.32;100819.97;10474373;28;20128;-65
2023/10/03 02:40:32;;;;;;;26.87;11.13;;;;;;;18.68;92.54;100782.72;10467716;28;20052;-65
2023/10/03 02:45:54;;;;;;;26.20;11.27;;;;;;;18.65;92.37;100777.69;10468628;28;20045;-65
2023/10/03 02:51:15;;;;;;;23.80;11.23;;;;;;;18.61;91.93;100765.69;10471027;28;20064;-65
2023/10/03 02:56:37;;;;;;;22.45;10.18;;;;;;;18.59;91.92;100764.09;10474528;28;20051;-65
2023/10/03 03:01:59;;;;;;;20.88;9.82;;;;;;;18.58;91.40;100747.56;10472374;28;20405;-65
2023/10/03 03:07:21;;;;;;;23.58;10.43;;;;;;;18.55;91.61;100732.00;10466735;28;20059;-65
2023/10/03 03:12:44;;;;;;;23.02;10.70;;;;;;;18.55;91.47;100721.53;10481197;28;20151;-65
2023/10/03 03:18:05;;;;;;;21.60;10.55;;;;;;;18.57;91.07;100705.72;10469598;28;20062;-65
2023/10/03 03:23:42;;;;;;;22.48;10.85;;;;;;;18.54;90.46;100692.78;10466523;28;20156;-65
2023/10/03 03:29:19;;;;;;;24.63;11.57;;;;;;;18.57;90.81;100661.97;10465028;28;20045;-64
2023/10/03 03:34:45;;;;;;;24.63;11.20;;;;;;;18.56;90.26;100639.34;10465841;28;20071;-64
2023/10/03 03:40:12;;;;;;;23.90;11.27;;;;;;;18.54;89.98;100598.44;10482338;28;20465;-64
2023/10/03 03:45:34;;;;;;;23.23;11.13;;;;;;;18.53;90.00;100608.06;10467623;28;20087;-64
2023/10/03 03:50:55;;;;;;;22.95;11.27;;;;;;;18.57;90.11;100596.44;10470502;28;20053;-64
2023/10/03 03:56:18;;;;;;;22.90;10.77;;;;;;;18.58;89.75;100592.91;10467094;28;20047;-64
2023/10/03 04:01:39;;;;;;;24.20;11.32;;;;;;;18.63;89.31;100592.56;10480199;28;20509;-64
2023/10/03 04:07:02;;;;;;;25.08;12.13;;;;;;;18.62;88.77;100581.28;10464556;28;20519;-64
2023/10/03 04:12:25;;;;;;;24.25;11.75;;;;;;;18.62;89.20;100573.41;10476363;28;20052;-64
2023/10/03 04:17:48;;;;;;;26.00;11.27;;;;;;;18.59;89.25;100572.75;10457930;28;20041;-65
2023/10/03 04:23:11;;;;;;;23.20;11.27;;;;;;;18.62;89.49;100570.78;10462984;28;20048;-65
2023/10/03 04:28:33;;;;;;;28.77;12.18;;;;;;;18.59;89.24;100576.22;10471336;28;20090;-65
2023/10/03 04:33:56;;;;;;;26.90;11.70;;;;;;;18.62;88.98;100565.56;10479669;28;20037;-65
2023/10/03 04:39:20;;;;;;;26.42;12.07;;;;;;;18.72;88.29;100556.09;10464811;28;20482;-65
2023/10/03 04:44:41;;;;;;;27.23;11.50;;;;;;;18.81;88.00;100565.13;10466093;28;20056;-65
2023/10/03 04:50:04;;;;;;;30.58;12.68;;;;;;;18.87;87.31;100559.47;10465042;28;20064;-65
2023/10/03 04:55:26;;;;;;;30.95;12.00;;;;;;;18.92;87.55;100541.63;10463998;28;20033;-65
2023/10/03 05:00:48;;;;;;;27.80;11.68;;;;;;;18.95;87.44;100531.75;10460111;28;20432;-65
2023/10/03 05:06:11;;;;;;;28.45;12.43;;;;;;;18.99;86.31;100516.63;10468077;28;20049;-65
2023/10/03 05:11:33;;;;;;;30.48;11.73;;;;;;;19.08;86.31;100530.91;10464620;28;20392;-65
2023/10/03 05:16:55;;;;;;;29.23;12.00;;;;;;;19.13;85.68;100518.31;10466550;28;20099;-65
2023/10/03 05:22:16;;;;;;;27.05;12.57;;;;;;;19.18;86.39;100524.06;10477111;28;20037;-65
2023/10/03 05:27:42;;;;;;;24.73;11.73;;;;;;;19.25;85.44;100517.44;10471889;28;20052;-65
2023/10/03 05:33:07;;;;;;;28.30;11.38;;;;;;;19.26;86.02;100519.13;10486329;28;20390;-65
2023/10/03 05:38:30;;;;;;;29.52;12.10;;;;;;;19.30;85.43;100521.41;10470893;28;20037;-65
2023/10/03 05:43:52;;;;;;;28.63;12.10;;;;;;;19.35;85.10;100498.38;10474809;28;20632;-64
2023/10/03 05:49:14;;;;;;;29.48;12.27;;;;;;;19.40;85.55;100506.75;10473653;28;20551;-65
2023/10/03 05:54:35;;;;;;;30.42;11.93;;;;;;;19.47;85.18;100512.38;10468300;28;20130;-65
2023/10/03 05:59:58;;;;;;;29.08;12.13;;;;;;;19.55;85.06;100517.91;10475905;28;20086;-66
2023/10/03 06:05:22;;;;;;;26.17;12.00;;;;;;;19.57;85.40;100513.41;10483162;28;20496;-65
2023/10/03 06:10:43;;;;;;;27.50;11.52;;;;;;;19.59;84.60;100527.25;10471930;28;20084;-66
2023/10/03 06:16:06;;;;;;;31.17;11.77;;;;;;;19.61;85.43;100528.00;10468569;28;20048;-65
2023/10/03 06:21:27;;;;;;;27.73;12.05;;;;;;;19.63;85.21;100534.78;10475000;28;20045;-65
2023/10/03 06:26:50;;;;;;;28.52;11.20;;;;;;;19.71;85.22;100545.59;10467921;28;20055;-65
2023/10/03 06:32:12;;;;;;;29.05;11.52;;;;;;;19.77;85.00;100552.19;10468617;28;20063;-65
2023/10/03 06:37:34;;;;;;;30.80;11.93;;;;;;;19.86;84.72;100557.63;10470187;28;20144;-64
2023/10/03 06:42:56;;;;;;;32.80;12.20;;;;;;;19.83;85.25;100552.56;10471779;28;20067;-64
2023/10/03 06:48:21;;;;;;;32.03;12.20;;;;;;;19.85;85.64;100563.00;10453877;28;20133;-64
2023/10/03 06:53:46;;;;;;;27.03;11.07;;;;;;;19.89;85.21;100569.66;10465088;28;20649;-65
2023/10/03 06:59:10;;;;;;;29.20;11.77;;;;;;;19.91;85.34;100573.03;10466460;28;20060;-65
2023/10/03 07:04:32;;;;;;;26.60;10.95;;;;;;;19.90;85.52;100574.00;10466890;28;20048;-65
2023/10/03 07:09:56;;;;;;;28.42;11.20;;;;;;;19.93;85.66;100581.63;10469114;28;20053;-65
2023/10/03 07:15:18;;;;;;;24.02;10.10;;;;;;;19.90;85.97;100572.22;10471424;28;20144;-65
2023/10/03 07:20:40;;;;;;;26.52;10.40;;;;;;;19.94;85.97;100586.78;10455605;28;20048;-65
2023/10/03 07:26:02;;;;;;;23.50;9.88;;;;;;;20.02;85.53;100594.09;10462708;28;20037;-64
2023/10/03 07:31:23;;;;;;;28.50;10.00;;;;;;;20.06;84.98;100592.94;10488076;28;20056;-64
2023/10/03 07:36:45;;;;;;;23.67;9.88;;;;;;;20.04;84.75;100590.44;10463441;28;20048;-64
2023/10/03 07:42:07;;;;;;;27.33;9.07;;;;;;;20.10;85.31;100590.91;10469356;28;20048;-64
2023/10/03 07:47:29;;;;;;;22.40;9.20;;;;;;;20.12;85.10;100605.63;10481656;28;20051;-64
2023/10/03 07:52:50;;;;;;;27.45;9.30;;;;;;;20.16;84.69;100606.25;10472245;28;20060;-64
2023/10/03 07:58:17;;;;;;;18.13;8.47;;;;;;;20.16;84.75;100627.28;10479502;28;20051;-64
2023/10/03 08:03:38;;;;;;;19.42;6.72;;;;;;;20.23;83.63;100629.38;10466229;28;20377;-64
2023/10/03 08:09:00;;;;;;;19.15;7.20;;;;;;;20.23;84.22;100618.88;10451224;28;20136;-64
2023/10/03 08:14:23;;;;;;;16.38;6.10;;;;;;;20.25;84.11;100621.38;10470670;28;20048;-64
2023/10/03 08:19:45;;;;;;;16.00;5.65;;;;;;;20.34;82.87;100626.81;10480393;28;20504;-64
2023/10/03 08:25:10;;;;;;;16.42;6.00;;;;;;;20.45;83.10;100639.16;10464904;28;20068;-64
2023/10/03 08:30:35;;;;;;;16.25;5.60;;;;;;;20.49;83.70;100640.59;10471033;28;20052;-64
2023/10/03 08:35:56;;;;;;;20.13;6.33;;;;;;;20.49;83.71;100646.69;10461977;28;20107;-64
2023/10/03 08:41:29;;;;;;;18.20;6.57;;;;;;;20.43;84.33;100677.84;10466892;28;20048;-64
2023/10/03 08:46:55;;;;;;;19.73;6.03;;;;;;;20.33;84.14;100638.25;10477589;28;20150;-64
2023/10/03 08:52:17;;;;;;;13.43;6.07;;;;;;;20.28;84.91;100657.94;10472907;28;20492;-64
2023/10/03 08:57:40;;;;;;;14.70;5.15;;;;;;;20.21;84.54;100675.97;10476325;28;20441;-64
2023/10/03 09:03:09;;;;;;;15.38;4.70;;;;;;;20.19;83.78;100675.22;10481094;28;20057;-64
2023/10/03 09:08:31;;;;;;;12.35;4.53;;;;;;;20.16;84.07;100685.94;10470466;28;20028;-64
2023/10/03 09:13:59;;;;;;;11.35;4.55;;;;;;;20.14;84.09;100686.97;10474881;28;20060;-64
2023/10/03 09:19:44;;;;;;;10.48;3.78;;;;;;;20.11;83.85;100693.28;10468099;28;20476;-64
2023/10/03 09:25:08;;;;;;;12.20;4.47;;;;;;;19.93;87.05;100713.84;10475404;28;20511;-64
2023/10/03 09:30:37;;;;;;;9.57;4.25;;;;;;;19.58;90.20;100744.31;10471825;28;20072;-65
2023/10/03 09:36:02;;;;;;;10.10;3.95;;;;;;;19.26;91.86;100755.31;10471664;28;20443;-65
2023/10/03 09:41:25;;;;;;;12.02;4.20;;;;;;;19.08;94.02;100753.91;10469058;28;20063;-65
2023/10/03 09:46:53;;;;;;;13.73;4.53;;;;;;;18.91;96.58;100771.59;10469179;28;20052;-65
2023/10/03 09:52:26;;;;;;;11.13;4.32;;;;;;;18.81;96.30;100817.69;10471997;28;20076;-65
2023/10/03 09:57:55;;;;;;;12.43;5.05;;;;;;;18.73;96.93;100813.91;10474263;28;20137;-65
2023/10/03 10:03:26;;;;;;;15.20;5.05;;;;;;;18.63;98.58;100839.84;10472280;28;20620;-65
2023/10/03 10:09:03;;;;;;;11.15;3.45;;;;;;;18.44;99.17;100883.84;10473534;28;20044;-65
2023/10/03 10:14:28;;;;;;;5.35;1.88;;;;;;;18.22;98.45;100895.72;10469236;28;20049;-64
2023/10/03 10:20:08;;;;;;;8.73;2.13;;;;;;;17.95;98.42;100908.69;10467464;28;20139;-64
2023/10/03 10:25:41;;;;;;;7.10;1.73;;;;;;;17.83;99.76;100914.66;10483283;28;20033;-64
2023/10/03 10:31:24;;;;;;;7.05;1.63;;;;;;;17.75;98.14;100927.31;10472760;28;20691;-64
2023/10/03 10:37:22;;;;;;;10.90;1.80;;;;;;;17.65;98.80;100947.94;10466419;28;20036;-64
2023/10/03 10:43:01;;;;;;;15.43;1.73;;;;;;;17.62;99.05;100968.22;10444690;28;20147;-64
2023/10/03 10:48:39;;;;;;;5.10;1.08;;;;;;;17.55;98.03;100979.97;10467863;28;20068;-64
2023/10/03 10:54:04;;;;;;;4.22;0.93;;;;;;;17.45;99.61;101012.81;10469683;28;20071;-65
2023/10/03 10:59:27;;;;;;;4.77;0.67;;;;;;;17.35;100.00;101007.22;10488163;28;20081;-64
2023/10/03 11:04:53;;;;;;;3.38;0.60;;;;;;;17.30;97.35;101024.09;10467085;28;20049;-64
2023/10/03 11:10:17;;;;;;;5.07;0.77;;;;;;;17.30;97.90;101031.94;10452229;28;22066;-64
2023/10/03 11:15:55;;;;;;;5.70;0.65;;;;;;;17.27;95.47;101034.75;10481708;28;20040;-64
2023/10/03 11:21:18;;;;;;;6.43;0.70;;;;;;;17.34;95.13;101031.69;10461758;28;20139;-64
2023/10/03 11:26:53;;;;;;;3.47;0.63;;;;;;;17.37;94.10;101046.38;10460484;28;20036;-64
2023/10/03 11:32:32;;;;;;;;;;;;;;;17.36;93.62;101056.00;10469653;28;20057;-64
2023/10/03 11:37:54;;;;;;;2.80;0.60;;;;;;;17.37;93.25;101067.31;10480842;28;19928;-65
2023/10/03 11:43:23;;;;;;;4.30;0.75;;;;;;;17.27;92.19;101076.59;10479348;28;20032;-65
2023/10/03 11:48:45;;;;;;;2.35;0.70;;;;;;;17.10;89.36;101116.72;10469159;28;20057;-64
2023/10/03 11:54:08;;;;;;;2.35;0.52;;;;;;;16.99;88.91;101098.13;10470647;28;20044;-64
2023/10/03 11:59:30;;;;;;;3.35;0.70;;;;;;;16.98;88.75;101102.50;10472482;28;20052;-64
2023/10/03 12:04:52;;;;;;;5.25;0.60;;;;;;;17.09;88.20;101115.88;10470882;28;20041;-64
2023/10/03 12:10:14;;;;;;;3.75;0.60;;;;;;;17.17;87.23;101143.38;10453582;28;20052;-64
2023/10/03 12:15:42;;;;;;;4.70;0.82;;;;;;;17.19;87.98;101138.94;10469961;28;20043;-65
2023/10/03 12:21:04;;;;;;;4.28;0.68;;;;;;;17.22;87.61;101141.38;10475033;28;20052;-64
2023/10/03 12:26:26;;;;;;;2.95;0.80;;;;;;;17.23;86.80;101145.69;10485289;28;20037;-64
2023/10/03 12:31:48;;;;;;;11.13;0.93;;;;;;;17.22;85.94;101155.31;10462882;28;20056;-64
2023/10/03 12:37:11;;;;;;;6.45;1.20;;;;;;;17.29;87.03;101164.50;10472674;28;20041;-64
2023/10/03 12:42:33;;;;;;;3.00;0.75;;;;;;;17.24;85.92;101152.59;10485211;28;20049;-65
2023/10/03 12:47:56;;;;;;;5.20;1.00;;;;;;;17.17;85.01;101185.22;10490717;28;20044;-64
2023/10/03 12:53:17;;;;;;;4.65;0.85;;;;;;;17.10;84.06;101201.22;10468715;28;20703;-64
2023/10/03 12:58:41;;;;;;;3.20;0.90;;;;;;;17.05;83.88;101208.47;10475486;28;20055;-65
2023/10/03 13:04:03;;;;;;;4.95;1.20;;;;;;;17.10;84.19;101216.91;10474242;28;20044;-64
2023/10/03 13:09:25;;;;;;;3.85;1.35;;;;;;;17.10;83.82;101235.22;10477082;28;20048;-65
2023/10/03 13:14:47;;;;;;;5.60;1.48;;;;;;;17.16;84.18;101247.16;10476065;28;20107;-64
2023/10/03 13:20:13;;;;;;;6.90;1.73;;;;;;;17.13;83.58;101260.41;10479247;28;20078;-64
2023/10/03 13:25:35;;;;;;;9.52;1.70;;;;;;;17.10;83.00;101279.69;10484762;28;20086;-64
2023/10/03 13:30:57;;;;;;;7.07;1.60;;;;;;;17.16;82.33;101293.41;10472378;28;20052;-65
2023/10/03 13:36:20;;;;;;;7.47;1.63;;;;;;;17.23;82.81;101284.31;10462214;28;20171;-65
2023/10/03 13:41:42;;;;;;;10.75;2.10;;;;;;;17.36;81.54;101296.69;10475267;28;20051;-65
2023/10/03 13:47:04;;;;;;;7.40;2.00;;;;;;;17.39;77.25;101306.19;10473966;28;20066;-64
2023/10/03 13:52:26;;;;;;;8.15;1.98;;;;;;;17.40;75.85;101323.56;10474606;28;20045;-65
2023/10/03 13:57:50;;;;;;;9.48;2.20;;;;;;;17.30;75.29;101346.75;10461976;28;20052;-64
2023/10/03 14:03:17;;;;;;;7.20;1.70;;;;;;;17.25;76.75;101355.72;10483930;28;20044;-64
2023/10/03 14:08:40;;;;;;;4.57;1.42;;;;;;;17.30;77.00;101356.34;10464599;28;20063;-64
2023/10/03 14:14:03;;;;;;;6.85;1.67;;;;;;;17.28;77.68;101355.56;10465118;28;20628;-64
2023/10/03 14:19:26;;;;;;;8.90;1.92;;;;;;;17.31;78.00;101365.88;10473645;28;20143;-64
2023/10/03 14:24:48;;;;;;;6.07;1.80;;;;;;;17.28;77.30;101368.66;10470483;28;20048;-64
2023/10/03 14:30:10;;;;;;;7.25;1.90;;;;;;;17.27;76.43;101380.06;10479949;28;20068;-64
2023/10/03 14:35:32;;;;;;;5.43;1.80;;;;;;;17.26;76.06;101376.59;10464507;28;20853;-64
2023/10/03 14:40:56;;;;;;;9.32;1.85;;;;;;;17.31;76.23;101397.28;10472550;28;20048;-64
2023/10/03 14:46:19;;;;;;;10.37;2.00;;;;;;;17.29;75.16;101420.91;10464079;28;20170;-64
2023/10/03 14:51:41;;;;;;;7.35;1.70;;;;;;;17.14;76.05;101439.94;10467595;28;20044;-64
2023/10/03 14:57:03;;;;;;;9.73;1.83;;;;;;;16.89;77.09;101462.91;10460288;28;20040;-64
2023/10/03 15:02:24;;;;;;;6.65;1.40;;;;;;;16.56;77.69;101457.44;10491247;28;20048;-64
2023/10/03 15:07:46;;;;;;;8.23;1.60;;;;;;;16.16;81.14;101465.31;10466190;28;20097;-64
2023/10/03 15:13:08;;;;;;;3.88;1.35;;;;;;;15.97;82.17;101470.44;10469575;28;20452;-64
2023/10/03 15:18:33;;;;;;;10.27;1.70;;;;;;;15.90;83.01;101473.38;10468877;28;20051;-64
2023/10/03 15:23:55;;;;;;;;;;;;;;;15.83;83.64;101488.47;10471560;28;20064;-64
2023/10/03 15:29:16;;;;;;;5.70;1.60;;;;;;;15.88;84.06;101485.63;10480825;28;19924;-64
2023/10/03 15:34:39;;;;;;;6.13;2.05;;;;;;;15.93;84.56;101483.72;10468436;28;20049;-64
2023/10/03 15:40:01;;;;;;;10.05;1.80;;;;;;;16.23;84.08;101492.84;10468398;28;20077;-64
2023/10/03 15:45:23;;;;;;;7.70;1.80;;;;;;;16.52;83.77;101487.25;10471902;28;20068;-64
2023/10/03 15:50:45;;;;;;;7.38;1.70;;;;;;;16.59;82.61;101498.28;10470061;28;20075;-64
2023/10/03 15:56:16;;;;;;;8.98;2.10;;;;;;;16.57;83.27;101518.41;10450648;28;20036;-64
2023/10/03 16:01:39;;;;;;;8.18;2.03;;;;;;;16.54;83.49;101523.75;10468405;28;20055;-64
2023/10/03 16:07:00;;;;;;;9.52;2.50;;;;;;;16.50;82.51;101528.25;10464472;28;20033;-64
2023/10/03 16:12:22;;;;;;;10.05;1.92;;;;;;;16.48;80.13;101544.94;10468420;28;20047;-64
2023/10/03 16:17:44;;;;;;;8.23;1.98;;;;;;;16.50;79.12;101580.53;10467971;28;20048;-64
2023/10/03 16:23:09;;;;;;;10.07;1.83;;;;;;;16.53;79.68;101567.34;10472793;28;20044;-64
2023/10/03 16:28:31;;;;;;;6.93;1.90;;;;;;;16.52;80.08;101581.31;10466672;28;20094;-64
2023/10/03 16:33:56;;;;;;;9.32;2.22;;;;;;;16.48;80.71;101632.00;10466526;28;20063;-64
2023/10/03 16:39:18;;;;;;;12.70;2.50;;;;;;;15.95;89.79;101636.75;10471172;28;20581;-65
2023/10/03 16:44:41;;;;;;;11.68;2.47;;;;;;;15.38;92.59;101651.13;10474373;28;20044;-65
2023/10/03 16:50:05;;;;;;;10.38;2.47;;;;;;;15.04;94.93;101641.03;10473098;28;20056;-64
2023/10/03 16:55:27;;;;;;;10.10;2.35;;;;;;;15.01;97.80;101646.38;10479295;28;20040;-64
2023/10/03 17:00:49;;;;;;;13.10;2.00;;;;;;;15.02;97.95;101666.31;10469776;28;20529;-64
2023/10/03 17:06:11;;;;;;;12.00;2.20;;;;;;;15.00;99.35;101670.72;10461950;28;20037;-64
2023/10/03 17:11:33;;;;;;;6.82;2.13;;;;;;;14.98;98.70;101678.59;10477239;28;20051;-65
2023/10/03 17:16:54;;;;;;;13.32;2.40;;;;;;;15.00;97.22;101681.16;10473850;28;20048;-65
2023/10/03 17:22:16;;;;;;;4.53;1.75;;;;;;;14.94;97.35;101697.03;10478041;28;20068;-65
2023/10/03 17:27:39;;;;;;;8.20;1.95;;;;;;;14.88;96.78;101698.06;10473424;28;20047;-65
2023/10/03 17:33:01;;;;;;;8.93;2.13;;;;;;;14.88;98.46;101699.81;10471091;28;20066;-65
2023/10/03 17:38:25;;;;;;;11.93;2.08;;;;;;;14.84;98.87;101706.91;10478684;28;20504;-65
2023/10/03 17:43:47;;;;;;;11.45;2.42;;;;;;;14.82;97.69;101705.22;10473185;28;20728;-65
2023/10/03 17:49:09;;;;;;;8.52;1.90;;;;;;;14.81;97.57;101722.66;10470315;28;20044;-65
2023/10/03 17:54:30;;;;;;;17.20;2.53;;;;;;;14.85;99.59;101723.38;10460942;28;20083;-65
2023/10/03 17:59:55;;;;;;;10.15;1.98;;;;;;;14.76;95.96;101734.94;10465847;28;20061;-65
2023/10/03 18:05:27;;;;;;;9.77;2.05;;;;;;;14.74;95.50;101747.16;10485218;28;20046;-65
2023/10/03 18:10:50;;;;;;;11.57;2.00;;;;;;;14.70;97.38;101761.22;10471464;28;20058;-65
2023/10/03 18:16:13;;;;;;;8.77;1.98;;;;;;;14.69;95.66;101776.88;10467803;28;20053;-65
2023/10/03 18:21:34;;;;;;;12.05;2.20;;;;;;;14.65;96.58;101789.16;10474895;28;20067;-65
2023/10/03 18:26:56;;;;;;;14.73;2.28;;;;;;;14.65;96.17;101793.53;10466434;28;20051;-64
2023/10/03 18:32:18;;;;;;;7.82;2.03;;;;;;;14.62;96.11;101809.25;10466636;28;20076;-64
2023/10/03 18:37:44;;;;;;;7.30;1.98;;;;;;;14.62;96.41;101810.09;10470205;28;20052;-64
2023/10/03 18:43:06;;;;;;;9.55;2.25;;;;;;;14.67;95.16;101823.81;10455770;28;20053;-64
2023/10/03 18:48:28;;;;;;;7.15;1.80;;;;;;;14.65;95.81;101815.22;10471248;28;20043;-65
2023/10/03 18:53:50;;;;;;;10.90;2.60;;;;;;;14.67;95.57;101815.16;10487763;28;20127;-64
2023/10/03 18:59:12;;;;;;;14.68;2.15;;;;;;;14.66;94.13;101832.56;10471081;28;20059;-64
2023/10/03 19:04:35;;;;;;;10.40;2.08;;;;;;;14.65;94.58;101836.03;10484824;28;20044;-64
2023/10/03 19:09:57;;;;;;;13.23;2.40;;;;;;;14.65;94.69;101851.69;10475197;28;20469;-65
2023/10/03 19:15:20;;;;;;;13.07;2.00;;;;;;;14.62;95.27;101856.13;10470860;28;20130;-64
2023/10/03 19:20:41;;;;;;;13.90;2.33;;;;;;;14.58;95.11;101868.41;10464378;28;20080;-64
2023/10/03 19:26:03;;;;;;;11.57;2.15;;;;;;;14.52;94.31;101876.38;10468375;28;20041;-65
2023/10/03 19:31:26;;;;;;;8.73;2.13;;;;;;;14.53;94.80;101888.53;10470652;28;20127;-65
2023/10/03 19:36:48;;;;;;;8.15;2.10;;;;;;;14.49;95.00;101886.91;10464493;28;20048;-65
2023/10/03 19:42:09;;;;;;;10.15;2.50;;;;;;;14.44;94.92;101904.44;10464505;28;20052;-65
2023/10/03 19:47:31;;;;;;;11.75;2.33;;;;;;;14.42;95.69;101908.81;10451141;28;20036;-65
2023/10/03 19:52:53;;;;;;;8.85;2.38;;;;;;;14.37;95.05;101918.53;10465534;28;20049;-65
2023/10/03 19:58:15;;;;;;;11.13;2.10;;;;;;;14.38;95.89;101922.81;10468291;28;20041;-65
2023/10/03 20:03:37;;;;;;;6.45;1.67;;;;;;;14.33;95.00;101910.81;10480051;28;20055;-65
2023/10/03 20:08:59;;;;;;;8.55;1.83;;;;;;;14.32;94.62;101933.41;10465444;28;20036;-65
2023/10/03 20:14:22;;;;;;;9.70;2.05;;;;;;;14.30;94.15;101932.63;10467681;28;20052;-65
2023/10/03 20:19:43;;;;;;;8.63;2.25;;;;;;;14.29;94.70;101936.09;10484300;28;20040;-65
2023/10/03 20:25:06;;;;;;;11.57;1.95;;;;;;;14.31;95.02;101949.94;10467765;28;20591;-65
2023/10/03 20:30:28;;;;;;;11.65;2.05;;;;;;;14.25;95.38;101941.41;10470008;28;20742;-65
2023/10/03 20:35:50;;;;;;;7.00;1.88;;;;;;;14.26;95.23;101962.19;10460176;28;20611;-65
2023/10/03 20:41:12;;;;;;;20.45;2.35;;;;;;;14.27;95.27;101963.06;10477693;28;20056;-65
2023/10/03 20:46:34;;;;;;;12.10;2.33;;;;;;;14.23;94.59;101961.44;10492512;28;20072;-65
2023/10/03 20:51:56;;;;;;;9.15;2.08;;;;;;;14.31;95.09;101970.75;10469149;28;20056;-65
2023/10/03 20:57:18;;;;;;;12.88;2.00;;;;;;;14.33;94.98;101976.78;10475465;28;20052;-65
2023/10/03 21:02:40;;;;;;;10.77;2.17;;;;;;;14.28;94.61;101983.88;10475149;28;20036;-65
2023/10/03 21:08:03;;;;;;;13.32;2.38;;;;;;;14.26;94.85;101985.63;10473743;28;20532;-65
2023/10/03 21:13:32;;;;;;;14.98;2.25;;;;;;;14.29;94.56;101998.59;10468918;28;20048;-65
2023/10/03 21:18:54;;;;;;;13.38;2.42;;;;;;;14.31;94.78;101999.41;10472300;28;20143;-65
2023/10/03 21:24:15;;;;;;;8.52;2.00;;;;;;;14.30;93.63;101999.44;10462368;28;20071;-66
2023/10/03 21:29:37;;;;;;;11.05;1.75;;;;;;;14.22;94.20;101998.75;10470063;28;20060;-66
2023/10/03 21:34:59;;;;;;;6.68;1.48;;;;;;;14.14;94.33;102004.16;10470224;28;20045;-65
2023/10/03 21:40:20;;;;;;;11.48;2.05;;;;;;;14.04;94.22;102003.56;10472001;28;20056;-65
2023/10/03 21:45:42;;;;;;;8.68;2.03;;;;;;;13.98;94.06;102015.84;10478632;28;20496;-65
2023/10/03 21:51:06;;;;;;;9.07;1.88;;;;;;;13.90;93.73;102004.75;10489317;28;20599;-65
2023/10/03 21:56:28;;;;;;;16.35;2.00;;;;;;;13.91;94.27;102009.09;10470049;28;20090;-64
2023/10/03 22:01:55;;;;;;;14.02;2.10;;;;;;;13.92;94.73;102002.97;10477274;28;20106;-64
2023/10/03 22:07:17;;;;;;;5.35;1.63;;;;;;;13.92;94.87;102009.06;10473682;28;20547;-65
2023/10/03 22:12:39;;;;;;;7.03;1.88;;;;;;;13.95;94.49;102021.16;10494737;28;20063;-65
2023/10/03 22:18:01;;;;;;;5.72;1.52;;;;;;;13.95;94.28;102023.75;10472346;28;20090;-65
2023/10/03 22:23:24;;;;;;;10.13;1.73;;;;;;;13.93;93.74;102008.19;10479043;28;20554;-65
2023/10/03 22:28:45;;;;;;;7.57;1.75;;;;;;;13.99;94.64;102028.00;10485527;28;20068;-65
2023/10/03 22:34:07;;;;;;;9.73;1.67;;;;;;;14.00;93.74;102030.56;10468578;28;20074;-65
2023/10/03 22:39:29;;;;;;;6.03;1.50;;;;;;;14.07;94.66;102033.84;10477438;28;20051;-65
2023/10/03 22:44:50;;;;;;;9.80;1.50;;;;;;;14.05;93.57;102026.06;10473548;28;20049;-65
2023/10/03 22:50:12;;;;;;;9.73;1.75;;;;;;;14.06;93.77;102037.34;10468878;28;20049;-65
2023/10/03 22:55:33;;;;;;;9.10;1.80;;;;;;;14.07;93.84;102028.63;10463344;28;20052;-65
2023/10/03 23:00:57;;;;;;;9.02;1.50;;;;;;;14.10;93.64;102041.56;10471116;28;20044;-65
2023/10/03 23:06:18;;;;;;;7.03;1.67;;;;;;;14.10;93.56;102044.16;10464510;28;20043;-65
2023/10/03 23:11:40;;;;;;;6.80;2.15;;;;;;;14.05;93.97;102040.84;10468726;28;20055;-65
2023/10/03 23:17:04;;;;;;;8.25;1.95;;;;;;;14.02;94.25;102048.72;10471167;28;20052;-65
2023/10/03 23:22:26;;;;;;;5.97;1.70;;;;;;;13.94;94.73;102063.66;10466532;28;20094;-65
2023/10/03 23:27:47;;;;;;;8.80;2.10;;;;;;;13.94;94.80;102063.66;10469575;28;20045;-65
2023/10/03 23:33:10;;;;;;;10.10;2.20;;;;;;;13.83;95.33;102060.47;10468692;28;20076;-65
2023/10/03 23:38:35;;;;;;;11.13;2.10;;;;;;;13.82;94.47;102058.75;10477121;28;20036;-65
2023/10/03 23:43:57;;;;;;;8.53;1.97;;;;;;;13.80;95.48;102066.59;10468936;28;20059;-65
2023/10/03 23:49:21;;;;;;;6.22;1.80;;;;;;;13.76;95.29;102074.50;10467741;28;20460;-65
2023/10/03 23:54:42;;;;;;;7.93;1.83;;;;;;;13.75;95.66;102075.41;10471287;28;20125;-65
